createdAt,value
2022-09-28T00:01:16.950Z,1.97
2022-09-28T00:03:45.635Z,1.70
2022-09-28T00:06:15.749Z,1.20
2022-09-28T00:08:44.835Z,1.80
2022-09-28T00:11:15.614Z,4.07
2022-09-28T00:13:44.582Z,3.13
2022-09-28T00:16:14.857Z,1.93
2022-09-28T00:18:43.007Z,1.97
2022-09-28T00:21:13.295Z,1.33
2022-09-28T00:23:55.848Z,2.10
2022-09-28T00:26:25.300Z,1.37
2022-09-28T00:28:53.389Z,1.97
2022-09-28T00:31:21.162Z,1.13
2022-09-28T00:33:51.389Z,1.00
2022-09-28T00:36:19.111Z,2.60
2022-09-28T00:38:47.376Z,1.10
2022-09-28T00:41:15.741Z,1.63
2022-09-28T00:43:44.865Z,3.20
2022-09-28T00:46:17.397Z,1.63
2022-09-28T00:48:53.669Z,1.83
2022-09-28T00:51:22.082Z,1.40
2022-09-28T00:53:51.251Z,1.40
2022-09-28T00:56:23.979Z,1.97
2022-09-28T00:58:54.657Z,1.33
2022-09-28T01:01:22.788Z,1.40
2022-09-28T01:03:50.865Z,1.53
2022-09-28T01:06:21.799Z,3.07
2022-09-28T01:08:51.952Z,1.00
2022-09-28T01:11:20.527Z,1.77
2022-09-28T01:13:51.581Z,1.03
2022-09-28T01:16:31.432Z,1.37
2022-09-28T01:19:09.103Z,1.13
2022-09-28T01:21:49.052Z,1.50
2022-09-28T01:24:36.047Z,2.77
2022-09-28T01:27:14.323Z,2.13
2022-09-28T01:29:49.055Z,1.20
2022-09-28T01:32:26.682Z,0.80
2022-09-28T01:34:59.587Z,1.40
2022-09-28T01:37:36.844Z,1.27
2022-09-28T01:40:07.565Z,1.27
2022-09-28T01:42:39.944Z,2.07
2022-09-28T01:45:14.348Z,1.77
2022-09-28T01:47:42.516Z,1.93
2022-09-28T01:50:14.779Z,2.30
2022-09-28T01:52:48.250Z,1.80
2022-09-28T01:55:25.885Z,1.63
2022-09-28T01:58:00.520Z,1.20
2022-09-28T02:00:29.318Z,2.07
2022-09-28T02:03:06.043Z,3.00
2022-09-28T02:05:36.600Z,2.57
2022-09-28T02:08:09.771Z,1.53
2022-09-28T02:10:44.497Z,1.77
2022-09-28T02:13:17.476Z,1.90
2022-09-28T02:15:52.622Z,3.37
2022-09-28T02:18:20.434Z,1.63
2022-09-28T02:20:53.821Z,1.67
2022-09-28T02:23:24.933Z,2.00
2022-09-28T02:26:00.672Z,2.50
2022-09-28T02:28:29.789Z,1.43
2022-09-28T02:30:57.505Z,2.13
2022-09-28T02:33:29.443Z,1.40
2022-09-28T02:35:59.447Z,2.80
2022-09-28T02:38:27.583Z,2.03
2022-09-28T02:41:03.833Z,3.77
2022-09-28T02:43:42.160Z,2.40
2022-09-28T02:46:24.432Z,2.40
2022-09-28T02:49:20.820Z,3.77
2022-09-28T02:52:03.301Z,2.90
2022-09-28T02:54:49.308Z,3.10
2022-09-28T02:57:31.242Z,3.20
2022-09-28T03:00:08.422Z,2.97
2022-09-28T03:02:41.934Z,3.07
2022-09-28T03:05:17.423Z,4.37
2022-09-28T03:07:53.366Z,3.00
2022-09-28T03:10:26.448Z,2.67
2022-09-28T03:12:55.748Z,2.93
2022-09-28T03:15:26.868Z,3.17
2022-09-28T03:17:54.947Z,3.63
2022-09-28T03:20:22.727Z,4.60
2022-09-28T03:23:06.344Z,2.97
2022-09-28T03:25:38.286Z,3.20
2022-09-28T03:28:05.979Z,2.57
2022-09-28T03:30:35.022Z,2.80
2022-09-28T03:33:03.188Z,2.80
2022-09-28T03:35:30.877Z,3.53
2022-09-28T03:37:58.614Z,2.53
2022-09-28T03:40:26.817Z,2.60
2022-09-28T03:42:55.020Z,2.87
2022-09-28T03:45:22.725Z,2.90
2022-09-28T03:47:51.875Z,2.80
2022-09-28T03:50:19.579Z,2.77
2022-09-28T03:52:47.973Z,2.50
2022-09-28T03:55:15.772Z,2.57
2022-09-28T03:57:43.459Z,2.60
2022-09-28T04:00:12.858Z,4.30
2022-09-28T04:02:40.556Z,2.10
2022-09-28T04:05:09.959Z,2.53
2022-09-28T04:07:37.718Z,2.20
2022-09-28T04:10:05.939Z,2.77
2022-09-28T04:12:33.657Z,2.30
2022-09-28T04:15:01.396Z,2.43
2022-09-28T04:17:29.115Z,2.13
2022-09-28T04:19:57.791Z,2.10
2022-09-28T04:22:26.851Z,2.20
2022-09-28T04:24:54.552Z,2.00
2022-09-28T04:27:39.997Z,2.50
2022-09-28T04:30:09.018Z,2.67
2022-09-28T04:32:36.748Z,2.27
2022-09-28T04:35:04.732Z,2.60
2022-09-28T04:37:33.845Z,3.53
2022-09-28T04:40:01.874Z,2.20
2022-09-28T04:42:29.685Z,2.60
2022-09-28T04:44:58.802Z,2.50
2022-09-28T04:47:26.625Z,2.70
2022-09-28T04:49:54.462Z,2.20
2022-09-28T04:52:22.158Z,3.20
2022-09-28T04:54:51.289Z,2.17
2022-09-28T04:57:19.056Z,1.90
2022-09-28T04:59:46.756Z,2.10
2022-09-28T05:02:15.190Z,2.10
2022-09-28T05:04:43.060Z,3.53
2022-09-28T05:07:10.927Z,2.23
2022-09-28T05:09:38.792Z,3.07
2022-09-28T05:12:09.736Z,2.43
2022-09-28T05:14:37.412Z,3.57
2022-09-28T05:17:05.151Z,2.17
2022-09-28T05:19:34.855Z,3.53
2022-09-28T05:22:04.443Z,2.50
2022-09-28T05:24:32.467Z,3.27
2022-09-28T05:27:00.211Z,2.23
2022-09-28T05:29:32.157Z,2.40
2022-09-28T05:32:01.690Z,3.83
2022-09-28T05:34:29.903Z,2.73
2022-09-28T05:36:57.671Z,2.40
2022-09-28T05:39:25.390Z,2.70
2022-09-28T05:41:53.067Z,2.23
2022-09-28T05:44:20.739Z,2.63
2022-09-28T05:46:49.820Z,3.37
2022-09-28T05:49:17.529Z,2.70
2022-09-28T05:51:45.203Z,2.83
2022-09-28T05:54:13.002Z,2.83
2022-09-28T05:56:40.675Z,3.13
2022-09-28T05:59:08.381Z,2.90
2022-09-28T06:01:36.111Z,3.00
2022-09-28T06:04:05.231Z,3.00
2022-09-28T06:06:32.938Z,2.80
2022-09-28T06:09:00.611Z,2.80
2022-09-28T06:11:28.292Z,2.97
2022-09-28T06:13:56.386Z,2.30
2022-09-28T06:16:24.238Z,3.03
2022-09-28T06:18:52.092Z,2.57
2022-09-28T06:21:21.235Z,2.60
2022-09-28T06:23:49.511Z,3.37
2022-09-28T06:26:17.770Z,2.97
2022-09-28T06:28:45.625Z,2.43
2022-09-28T06:31:13.391Z,2.97
2022-09-28T06:33:42.051Z,2.17
2022-09-28T06:36:10.336Z,2.17
2022-09-28T06:38:39.397Z,2.27
2022-09-28T06:41:07.389Z,2.97
2022-09-28T06:43:35.141Z,4.93
2022-09-28T06:46:03.459Z,2.53
2022-09-28T06:48:31.779Z,2.77
2022-09-28T06:50:59.472Z,3.10
2022-09-28T06:53:28.238Z,2.13
2022-09-28T06:55:57.530Z,2.17
2022-09-28T06:58:27.179Z,1.87
2022-09-28T07:00:58.649Z,2.60
2022-09-28T07:03:27.353Z,3.80
2022-09-28T07:05:56.016Z,2.43
2022-09-28T07:08:25.910Z,3.40
2022-09-28T07:10:56.282Z,2.23
2022-09-28T07:13:50.305Z,1.97
2022-09-28T07:16:16.104Z,2.63
2022-09-28T07:18:44.041Z,3.23
2022-09-28T07:21:24.631Z,2.83
2022-09-28T07:23:54.907Z,5.67
2022-09-28T07:26:24.574Z,2.00
2022-09-28T07:28:55.965Z,3.13
2022-09-28T07:31:25.220Z,2.20
2022-09-28T07:33:53.941Z,3.77
2022-09-28T07:36:22.864Z,2.23
2022-09-28T07:38:50.751Z,2.17
2022-09-28T07:41:22.494Z,2.73
2022-09-28T07:43:50.890Z,2.20
2022-09-28T07:46:21.301Z,2.80
2022-09-28T07:48:49.594Z,2.70
2022-09-28T07:51:19.725Z,2.60
2022-09-28T07:53:48.014Z,3.57
2022-09-28T07:56:17.410Z,2.37
2022-09-28T07:58:45.205Z,2.20
2022-09-28T08:01:15.302Z,2.00
2022-09-28T08:03:47.888Z,2.10
2022-09-28T08:06:17.662Z,2.07
2022-09-28T08:08:46.062Z,1.70
2022-09-28T08:11:15.324Z,1.73
2022-09-28T08:13:44.039Z,1.80
2022-09-28T08:16:11.885Z,1.77
2022-09-28T08:18:39.651Z,2.10
2022-09-28T08:21:26.398Z,1.87
2022-09-28T08:23:54.124Z,2.20
2022-09-28T08:26:21.973Z,2.37
2022-09-28T08:28:50.124Z,3.00
2022-09-28T08:31:17.973Z,2.37
2022-09-28T08:33:45.953Z,1.83
2022-09-28T08:36:15.546Z,2.23
2022-09-28T08:38:43.540Z,2.00
2022-09-28T08:41:19.918Z,1.73
2022-09-28T08:44:01.605Z,1.10
2022-09-28T08:46:36.024Z,0.80
2022-09-28T08:49:26.298Z,2.03
2022-09-28T08:52:01.213Z,0.93
2022-09-28T08:54:36.762Z,2.00
2022-09-28T08:57:08.456Z,1.53
2022-09-28T08:59:46.669Z,1.80
2022-09-28T09:02:19.184Z,1.53
2022-09-28T09:04:47.257Z,0.90
2022-09-28T09:07:40.464Z,1.30
2022-09-28T09:10:19.507Z,1.60
2022-09-28T09:12:59.848Z,1.17
2022-09-28T09:15:43.333Z,1.53
2022-09-28T09:18:23.178Z,1.00
2022-09-28T09:20:54.619Z,1.50
2022-09-28T09:23:36.648Z,0.90
2022-09-28T09:26:16.667Z,2.00
2022-09-28T09:29:01.158Z,1.70
2022-09-28T09:31:42.845Z,1.67
2022-09-28T09:34:27.005Z,2.40
2022-09-28T09:37:06.683Z,1.17
2022-09-28T09:39:51.288Z,0.90
2022-09-28T09:42:37.232Z,1.20
2022-09-28T09:45:17.228Z,1.27
2022-09-28T09:47:48.713Z,2.53
2022-09-28T09:50:29.947Z,1.27
2022-09-28T09:53:02.188Z,2.30
2022-09-28T09:55:35.353Z,1.07
2022-09-28T09:58:10.228Z,0.97
2022-09-28T10:00:42.103Z,1.40
2022-09-28T10:03:21.067Z,1.43
2022-09-28T10:05:56.349Z,1.00
2022-09-28T10:08:26.360Z,1.43
2022-09-28T10:11:08.370Z,1.20
2022-09-28T10:13:37.058Z,0.60
2022-09-28T10:16:06.855Z,2.03
2022-09-28T10:18:35.469Z,1.60
2022-09-28T10:21:03.440Z,0.80
2022-09-28T10:23:34.899Z,1.77
2022-09-28T10:26:08.988Z,1.10
2022-09-28T10:28:46.533Z,1.47
2022-09-28T10:31:40.858Z,2.10
2022-09-28T10:34:13.983Z,2.93
2022-09-28T10:36:55.423Z,1.60
2022-09-28T10:39:28.809Z,1.00
2022-09-28T10:41:59.908Z,1.90
2022-09-28T10:44:28.441Z,1.30
2022-09-28T10:47:01.715Z,1.70
2022-09-28T10:49:33.368Z,1.03
2022-09-28T10:52:01.373Z,1.50
2022-09-28T10:54:31.175Z,0.70
2022-09-28T10:57:01.051Z,0.63
2022-09-28T10:59:39.674Z,0.93
2022-09-28T11:02:20.890Z,1.20
2022-09-28T11:04:54.403Z,2.10
2022-09-28T11:07:26.052Z,0.80
2022-09-28T11:09:56.192Z,2.70
2022-09-28T11:12:28.350Z,1.13
2022-09-28T11:15:02.581Z,1.63
2022-09-28T11:17:32.615Z,1.07
2022-09-28T11:20:02.797Z,1.30
2022-09-28T11:22:41.760Z,1.13
2022-09-28T11:25:22.167Z,1.87
2022-09-28T11:28:04.520Z,0.97
2022-09-28T11:30:35.841Z,1.77
2022-09-28T11:33:06.770Z,1.30
2022-09-28T11:35:47.012Z,1.50
2022-09-28T11:38:34.067Z,1.50
2022-09-28T11:41:22.458Z,2.10
2022-09-28T11:44:16.392Z,2.43
2022-09-28T11:46:58.248Z,1.50
2022-09-28T11:49:34.140Z,1.50
2022-09-28T11:52:07.349Z,1.57
2022-09-28T11:54:41.751Z,1.70
2022-09-28T11:57:15.727Z,1.13
2022-09-28T11:59:56.025Z,1.77
2022-09-28T12:02:28.429Z,1.70
2022-09-28T12:05:00.332Z,1.30
2022-09-28T12:07:33.789Z,1.10
2022-09-28T12:10:10.309Z,1.40
2022-09-28T12:12:41.192Z,1.93
2022-09-28T12:15:19.644Z,1.17
2022-09-28T12:17:52.364Z,0.73
2022-09-28T12:20:25.437Z,1.17
2022-09-28T12:23:03.472Z,1.43
2022-09-28T12:25:41.183Z,0.97
2022-09-28T12:28:18.254Z,2.00
2022-09-28T12:30:49.204Z,0.70
2022-09-28T12:33:17.198Z,1.90
2022-09-28T12:36:08.498Z,1.50
2022-09-28T12:39:17.569Z,1.00
2022-09-28T12:41:55.877Z,0.83
2022-09-28T12:44:48.028Z,0.80
2022-09-28T12:47:39.893Z,1.07
2022-09-28T12:50:38.001Z,1.10
2022-09-28T12:53:34.085Z,0.67
2022-09-28T12:56:06.262Z,0.40
2022-09-28T12:58:45.774Z,0.47
2022-09-28T13:01:28.003Z,1.20
2022-09-28T13:04:14.308Z,0.77
2022-09-28T13:06:51.720Z,1.63
2022-09-28T13:09:25.089Z,1.63
2022-09-28T13:12:06.162Z,1.67
2022-09-28T13:15:17.815Z,0.40
2022-09-28T13:17:56.767Z,0.70
2022-09-28T13:20:35.894Z,1.33
2022-09-28T13:23:15.118Z,2.57
2022-09-28T13:25:48.963Z,0.67
2022-09-28T13:28:22.070Z,2.03
2022-09-28T13:30:53.656Z,1.45
2022-09-28T13:33:30.225Z,0.97
2022-09-28T13:35:59.328Z,1.33
2022-09-28T13:38:32.400Z,1.23
2022-09-28T13:41:31.785Z,1.23
2022-09-28T13:44:23.933Z,3.00
2022-09-28T13:47:08.528Z,1.67
2022-09-28T13:49:49.020Z,1.47
2022-09-28T13:52:34.217Z,0.80
2022-09-28T13:55:15.445Z,1.63
2022-09-28T13:57:49.537Z,3.77
2022-09-28T14:00:22.062Z,0.97
2022-09-28T14:02:54.971Z,1.20
2022-09-28T14:06:13.332Z,1.63
2022-09-28T14:08:45.880Z,1.23
2022-09-28T14:11:50.108Z,2.03
2022-09-28T14:14:47.116Z,0.77
2022-09-28T14:17:50.523Z,1.40
2022-09-28T14:20:22.419Z,3.97
2022-09-28T14:23:22.135Z,1.23
2022-09-28T14:26:07.084Z,0.50
2022-09-28T14:28:55.581Z,0.90
2022-09-28T14:31:27.655Z,1.03
2022-09-28T14:33:58.696Z,1.33
2022-09-28T14:36:47.335Z,1.03
2022-09-28T14:39:41.287Z,1.03
2022-09-28T14:42:15.626Z,1.17
2022-09-28T14:45:20.543Z,0.87
2022-09-28T14:48:22.550Z,1.20
2022-09-28T14:50:50.396Z,1.70
2022-09-28T14:53:24.889Z,3.33
2022-09-28T14:55:56.400Z,2.07
2022-09-28T14:58:28.813Z,1.90
2022-09-28T15:01:04.663Z,1.50
2022-09-28T15:03:36.401Z,1.63
2022-09-28T15:06:04.133Z,2.67
2022-09-28T15:08:39.741Z,3.70
2022-09-28T15:11:11.988Z,3.77
2022-09-28T15:13:41.623Z,2.97
2022-09-28T15:16:13.328Z,4.43
2022-09-28T15:19:10.826Z,4.70
2022-09-28T15:21:41.060Z,2.97
2022-09-28T15:24:31.460Z,3.00
2022-09-28T15:26:59.910Z,4.40
2022-09-28T15:29:33.618Z,1.40
2022-09-28T15:32:01.553Z,5.47
2022-09-28T15:34:51.561Z,4.97
2022-09-28T15:37:22.864Z,2.53
2022-09-28T15:39:52.356Z,1.93
2022-09-28T15:42:20.497Z,2.23
2022-09-28T15:45:07.847Z,1.30
2022-09-28T15:47:40.078Z,1.33
2022-09-28T15:50:20.655Z,2.60
2022-09-28T15:52:56.400Z,1.33
2022-09-28T15:55:27.845Z,1.27
2022-09-28T15:58:17.814Z,1.73
2022-09-28T16:00:48.482Z,1.60
2022-09-28T16:03:24.987Z,2.17
2022-09-28T16:06:06.175Z,1.30
2022-09-28T16:08:40.835Z,5.67
2022-09-28T16:11:15.648Z,2.03
2022-09-28T16:13:55.564Z,5.00
2022-09-28T16:16:28.964Z,3.90
2022-09-28T16:18:58.658Z,1.93
2022-09-28T16:21:37.579Z,1.93
2022-09-28T16:24:05.811Z,1.60
2022-09-28T16:26:35.752Z,2.37
2022-09-28T16:29:10.577Z,1.77
2022-09-28T16:31:51.317Z,3.10
2022-09-28T16:34:21.093Z,2.07
2022-09-28T16:36:50.220Z,2.30
2022-09-28T16:39:19.195Z,5.50
2022-09-28T16:41:50.041Z,3.27
2022-09-28T16:44:25.972Z,2.57
2022-09-28T16:46:58.439Z,3.47
2022-09-28T16:49:26.954Z,4.53
2022-09-28T16:51:54.940Z,2.90
2022-09-28T16:54:42.182Z,8.47
2022-09-28T16:57:12.586Z,6.90
2022-09-28T16:59:40.568Z,4.90
2022-09-28T17:02:45.163Z,3.33
2022-09-28T17:05:08.874Z,3.30
2022-09-28T17:07:36.912Z,3.47
2022-09-28T17:10:10.303Z,3.37
2022-09-28T17:12:38.037Z,3.07
2022-09-28T17:15:08.081Z,3.03
2022-09-28T17:17:39.292Z,3.40
2022-09-28T17:20:20.366Z,4.53
2022-09-28T17:22:48.197Z,3.90
2022-09-28T17:25:16.037Z,3.60
2022-09-28T17:27:46.378Z,3.70
2022-09-28T17:30:15.564Z,4.27
2022-09-28T17:32:47.101Z,7.53
2022-09-28T17:35:25.368Z,4.53
2022-09-28T17:37:53.580Z,5.00
2022-09-28T17:40:24.355Z,6.47
2022-09-28T17:42:55.162Z,5.67
2022-09-28T17:45:23.678Z,6.53
2022-09-28T17:47:52.728Z,6.80
2022-09-28T17:50:23.985Z,6.37
2022-09-28T17:52:53.124Z,6.60
2022-09-28T17:55:22.372Z,8.13
2022-09-28T17:57:50.801Z,6.93
2022-09-28T18:00:19.066Z,4.83
2022-09-28T18:02:47.335Z,6.00
2022-09-28T18:05:16.504Z,6.23
2022-09-28T18:07:47.596Z,6.53
2022-09-28T18:10:17.359Z,5.93
2022-09-28T18:12:45.271Z,6.07
2022-09-28T18:15:13.321Z,4.37
2022-09-28T18:17:41.553Z,7.20
2022-09-28T18:20:11.606Z,4.97
2022-09-28T18:22:40.992Z,4.70
2022-09-28T18:25:09.476Z,5.00
2022-09-28T18:27:37.205Z,4.40
2022-09-28T18:30:06.156Z,4.60
2022-09-28T18:32:36.945Z,6.57
2022-09-28T18:35:05.024Z,4.13
2022-09-28T18:37:37.576Z,4.13
2022-09-28T18:40:08.525Z,5.47
2022-09-28T18:42:36.634Z,4.03
2022-09-28T18:45:05.812Z,4.33
2022-09-28T18:47:34.869Z,4.03
2022-09-28T18:50:02.580Z,4.73
2022-09-28T18:52:30.382Z,3.77
2022-09-28T18:54:58.120Z,4.97
2022-09-28T18:57:27.772Z,4.73
2022-09-28T18:59:55.705Z,5.40
2022-09-28T19:02:23.787Z,5.57
2022-09-28T19:04:51.652Z,5.47
2022-09-28T19:07:19.857Z,6.83
2022-09-28T19:09:47.628Z,6.27
2022-09-28T19:12:15.992Z,7.20
2022-09-28T19:14:45.060Z,6.97
2022-09-28T19:17:13.243Z,5.50
2022-09-28T19:19:42.671Z,5.60
2022-09-28T19:22:10.477Z,5.70
2022-09-28T19:24:38.218Z,5.23
2022-09-28T19:27:05.959Z,4.80
2022-09-28T19:29:33.784Z,5.23
2022-09-28T19:32:03.376Z,4.13
2022-09-28T19:34:31.128Z,5.00
2022-09-28T19:37:01.121Z,6.37
2022-09-28T19:39:28.838Z,5.50
2022-09-28T19:41:57.631Z,4.87
2022-09-28T19:44:27.809Z,4.90
2022-09-28T19:46:57.075Z,5.10
2022-09-28T19:49:27.795Z,6.93
2022-09-28T19:52:14.609Z,7.37
2022-09-28T19:54:44.875Z,7.30
2022-09-28T19:57:14.455Z,8.00
2022-09-28T19:59:42.244Z,8.17
2022-09-28T20:02:11.924Z,8.23
2022-09-28T20:04:41.114Z,9.00
2022-09-28T20:07:08.884Z,7.83
2022-09-28T20:09:36.624Z,7.60
2022-09-28T20:12:04.557Z,7.47
2022-09-28T20:14:37.963Z,7.53
2022-09-28T20:17:08.093Z,8.77
2022-09-28T20:19:36.106Z,9.70
2022-09-28T20:22:05.246Z,10.30
2022-09-28T20:24:33.387Z,9.17
2022-09-28T20:27:02.423Z,11.30
2022-09-28T20:29:31.663Z,10.90
2022-09-28T20:32:00.418Z,15.20
2022-09-28T20:34:28.308Z,12.03
2022-09-28T20:36:56.301Z,9.27
2022-09-28T20:39:26.423Z,8.03
2022-09-28T20:41:55.017Z,6.73
2022-09-28T20:44:22.785Z,6.67
2022-09-28T20:46:51.261Z,7.97
2022-09-28T20:49:19.026Z,7.87
2022-09-28T20:51:46.836Z,7.17
2022-09-28T20:54:14.563Z,6.30
2022-09-28T20:56:43.688Z,6.00
2022-09-28T20:59:13.196Z,5.50
2022-09-28T21:01:41.945Z,7.80
2022-09-28T21:04:11.395Z,6.33
2022-09-28T21:06:40.757Z,5.30
2022-09-28T21:09:10.642Z,6.17
2022-09-28T21:11:39.477Z,5.53
2022-09-28T21:14:10.228Z,6.40
2022-09-28T21:16:38.430Z,7.10
2022-09-28T21:19:06.172Z,8.20
2022-09-28T21:21:34.053Z,6.80
2022-09-28T21:24:02.161Z,6.47
2022-09-28T21:26:32.668Z,6.93
2022-09-28T21:29:02.426Z,7.13
2022-09-28T21:31:33.905Z,6.83
2022-09-28T21:34:01.815Z,6.67
2022-09-28T21:36:29.539Z,6.43
2022-09-28T21:38:57.479Z,5.77
2022-09-28T21:41:25.680Z,5.90
2022-09-28T21:43:53.661Z,5.53
2022-09-28T21:46:21.575Z,5.57
2022-09-28T21:48:54.372Z,6.17
2022-09-28T21:51:22.695Z,5.33
2022-09-28T21:53:50.393Z,6.53
2022-09-28T21:56:18.589Z,8.03
2022-09-28T21:58:46.392Z,4.40
2022-09-28T22:01:18.217Z,4.53
2022-09-28T22:03:48.547Z,4.53
2022-09-28T22:06:19.447Z,5.23
2022-09-28T22:08:47.920Z,5.57
2022-09-28T22:11:17.907Z,7.37
2022-09-28T22:13:46.950Z,6.50
2022-09-28T22:16:16.545Z,8.60
2022-09-28T22:18:45.247Z,9.33
2022-09-28T22:21:15.806Z,10.43
2022-09-28T22:23:45.289Z,9.67
2022-09-28T22:26:17.734Z,7.17
2022-09-28T22:28:46.881Z,7.33
2022-09-28T22:31:14.903Z,4.07
2022-09-28T22:33:42.734Z,3.40
2022-09-28T22:36:11.223Z,4.60
2022-09-28T22:38:40.324Z,4.20
2022-09-28T22:41:10.724Z,5.10
2022-09-28T22:43:38.456Z,4.60
2022-09-28T22:46:08.685Z,5.13
2022-09-28T22:48:36.916Z,7.23
2022-09-28T22:51:07.238Z,8.57
2022-09-28T22:53:36.360Z,4.97
2022-09-28T22:56:06.957Z,4.93
2022-09-28T22:58:37.090Z,4.47
2022-09-28T23:01:09.088Z,4.40
2022-09-28T23:03:37.137Z,4.63
2022-09-28T23:06:05.044Z,4.00
2022-09-28T23:08:32.974Z,4.50
2022-09-28T23:11:01.331Z,4.57
2022-09-28T23:13:31.017Z,5.37
2022-09-28T23:16:02.304Z,6.40
2022-09-28T23:18:32.682Z,3.73
2022-09-28T23:21:02.479Z,3.73
2022-09-28T23:23:30.459Z,3.93
2022-09-28T23:25:58.605Z,4.53
2022-09-28T23:28:27.909Z,4.13
2022-09-28T23:30:55.957Z,3.97
2022-09-28T23:33:25.407Z,4.90
2022-09-28T23:35:53.283Z,4.27
2022-09-28T23:38:21.300Z,4.43
2022-09-28T23:40:49.427Z,4.53
2022-09-28T23:43:17.344Z,5.40
2022-09-28T23:45:45.573Z,4.77
2022-09-28T23:48:15.094Z,4.63
2022-09-28T23:50:44.840Z,4.93
2022-09-28T23:53:13.726Z,4.00
2022-09-28T23:55:42.660Z,6.37
2022-09-28T23:58:11.061Z,6.23
